• Join FlightAware (Why Join?)
  • Login
  • US Flag 
08:47AM EDT


 

Airport Tracker/Info


-or-


 

Live Flight TrackerFlight Track Log ✈ COM2921 ✈ 28-Apr-2012 ✈ KMBS - KDTW

Flight Track Log - Related Links

Times and Time Zones

All times are in EDT time to prevent confusion due to time zone crossing. See the COM2921 flight status page for this flight to view local times or setup timezone preferences in your user account.

Time Position Orientation Groundspeed Altitude Reporting Facility
EDT Latitude Longitude Course Direction KTS MPH feet Rate Location/Type
10:17AM 43.1063 -83.8634 350° North  Level FlightAware Approximate
10:18AM 43.0607 -83.8375 348° North  Level FlightAware Approximate
10:19AM 43.3908 -83.9336 165° South 268 308 8,200  Level FAA TRACON SMA TRACON (SMA)
10:19AM 43.3344 -83.9128 166° South 273 314 9,500 1,920 Climbing FAA TRACON SMA TRACON (SMA)
10:20AM 43.2794 -83.8933 166° South 291 335 10,800 1,740 Climbing FAA TRACON SMA TRACON (SMA)
10:21AM 43.2292 -83.8758 165° South 300 345 11,800 960 Climbing FAA TRACON SMA TRACON (SMA)
10:21AM 43.1683 -83.8536 166° South 320 368 12,100 120 Climbing FAA TRACON SMA TRACON (SMA)
10:22AM 43.1033 -83.8311 165° South 344 396 12,000 -120 Descending FAA TRACON SMA TRACON (SMA)
10:23AM 43.0431 -83.8094 165° South 343 395 12,000  Level FAA TRACON SMA TRACON (SMA)
10:23AM 42.9853 -83.7881 166° South 332 382 12,000 -420 Level FAA TRACON SMA TRACON (SMA)
10:24AM 42.9219 -83.7667 166° South 338 389 11,500 -780 Descending FAA TRACON SMA TRACON (SMA)
10:25AM 42.8628 -83.7464 159° South 335 386 11,000 -420 Descending FAA TRACON SMA TRACON (SMA)
10:25AM 42.8061 -83.7172 157° South 340 391 11,000  Level FAA TRACON SMA TRACON (SMA)
10:26AM 42.7456 -83.6814 156° South 342 394 11,000  Level FAA TRACON SMA TRACON (SMA)
10:27AM 42.6914 -83.6489 157° South 328 377 11,000  Level FAA TRACON SMA TRACON (SMA)
10:27AM 42.6386 -83.6178 156° South 318 366 11,000  Level FAA TRACON SMA TRACON (SMA)
10:28AM 42.5919 -83.5892 157° South 278 320 11,000  Level FAA TRACON SMA TRACON (SMA)
10:29AM 42.5450 -83.5622 156° South 264 304 11,000  Level FAA TRACON SMA TRACON (SMA)
10:29AM 42.5003 -83.5353 156° South 265 305 11,000  Level FAA TRACON SMA TRACON (SMA)
10:30AM 42.4569 -83.5097 168° South 262 302 11,000  Level FAA TRACON SMA TRACON (SMA)
10:31AM 42.4078 -83.4950 168° South 260 299 11,000  Level FAA TRACON SMA TRACON (SMA)
10:32AM 42.3569 -83.4803 170° South 257 296 11,000  Level Cleveland Center
10:32AM 42.3164 -83.4708 194° South 256 295 11,000 -780 Level FAA TRACON SMA TRACON (SMA)
10:33AM 42.2731 -83.4853 208° Southwest 240 276 10,000 -1,500 Descending FAA TRACON SMA TRACON (SMA)
10:33AM 42.2367 -83.5119 206° Southwest 242 278 9,000 -1,500 Descending FAA TRACON SMA TRACON (SMA)
10:34AM 42.1942 -83.5403 208° Southwest 244 281 8,100 -1,320 Descending FAA TRACON SMA TRACON (SMA)
10:35AM 42.1558 -83.5678 210° Southwest 226 260 7,300 -1,260 Descending FAA TRACON SMA TRACON (SMA)
10:35AM 42.1211 -83.5944 210° Southwest 226 260 6,400 -1,200 Descending FAA TRACON SMA TRACON (SMA)
10:36AM 42.0839 -83.6239 198° South 223 257 5,700 -1,080 Descending FAA TRACON SMA TRACON (SMA)
10:37AM 42.0511 -83.6383 120° Southeast 191 220 5,000 -540 Descending FAA TRACON SMA TRACON (SMA)
10:37AM 42.0347 -83.5994 90° East 196 226 5,000  Level FAA TRACON SMA TRACON (SMA)
10:38AM 42.0344 -83.5514 51° Northeast 201 231 5,000 -480 Level FAA TRACON SMA TRACON (SMA)
10:39AM 42.0581 -83.5125 51° Northeast 195 224 4,400 -900 Descending FAA TRACON SMA TRACON (SMA)